Arp, Texas
Current Conditions -  °F | °C
As of 4:15 PM on Monday 20 Oct 2014 (Local Time) from KRFI Reporting Station
Clear Clear  
Wind Chill: 78°   Ceiling: Unl
Heat Index: 79°   Visibility: 10mi
Dew Point: 52°   Wind: 0mph
Humidity: 41%   Direction: NA
Pressure: 30.04"   Gusts: NA
Location:  32.23°N, 95.06°W
Report Text: KRFI 202115Z AUTO 00000KT 10SM CLR 25/11 A3004 RMK AO2 T02540111
Loading
Personal Weather Stations






























Interactive Weather Map
Tropical Storm Tracking
New forecast layout! Learn more

10-Day Weather Forecast

Advertisements
Track Severe Weather on mobile